<?xml version="1.0" encoding="UTF-8" standalone="no" ?>
<gpx xmlns="http://www.topografix.com/GPX/1/1" xmlns:xsi="http://www.w3.org/2001/XMLSchema-instance" xsi:schemaLocation="http://www.topografix.com/GPX/1/1 http://www.topografix.com/GPX/1/1/gpx.xsd" version="1.1" creator="VisuGPX - https://www.visugpx.com">
  <metadata>
    <name>Sortie Dominical Mouan-Sartoux</name>
    <desc><![CDATA[De bon passage technique et de joli sentier a travers les mimosas !]]></desc>
  </metadata>
  <trk>
    <name><![CDATA[mouhan sarthoux]]></name>
    <desc><![CDATA[<h1>OruxMaps</h1><br /><hr align="center" width="480" style="height: 2px; width: 517px"/><h2>Nom: mouhan sarthoux</h2><br /><p>Temps de départ: 03/03/2013 10:04</p><p>Temps d'arrivée: 03/03/2013 12:04</p><p>Distance: 13 km (02:00)</p><p>Temps déplacement: 01:22</p><p>Vitesse moyenne: 6,5 km/h</p><p>Vitesse moyenne: 9,5 km/h</p><p>Vitess Max.: 20,5 km/h</p><p>Altitude minimale: 79 m</p><p>Altitude maximale: 366 m</p><p>Vitesse d'élévation: 249,3 m/h</p><p>Vitesse de descente: -421,8 m/h</p><p>Gain Altitude: 199 m</p><p>Perte Altitude: -379 m</p><p>Temps d'élévation: 00:48</p><p>Temps de descente: 00:54</p><hr align="center" width="480" style="height: 2px; width: 517px"/>]]></desc>
    <trkseg>
      <trkpt lat="43.60023" lon="6.94841">
        <ele>366.1875</ele>
        <time>2013-03-03T09:04:14Z</time>
      </trkpt>
      <trkpt lat="43.59784" lon="6.94525">
        <ele>322.64063</ele>
        <time>2013-03-03T09:06:14Z</time>
      </trkpt>
      <trkpt lat="43.60034" lon="6.9439">
        <ele>290.23047</ele>
        <time>2013-03-03T09:08:14Z</time>
      </trkpt>
      <trkpt lat="43.60155" lon="6.94023">
        <ele>262.17285</ele>
        <time>2013-03-03T09:10:14Z</time>
      </trkpt>
      <trkpt lat="43.60081" lon="6.93651">
        <ele>230.12964</ele>
        <time>2013-03-03T09:12:14Z</time>
      </trkpt>
      <trkpt lat="43.6001" lon="6.93558">
        <ele>200.09723</ele>
        <time>2013-03-03T09:14:14Z</time>
      </trkpt>
      <trkpt lat="43.59939" lon="6.93419">
        <ele>168.32292</ele>
        <time>2013-03-03T09:16:14Z</time>
      </trkpt>
      <trkpt lat="43.59769" lon="6.93431">
        <ele>112.63623</ele>
        <time>2013-03-03T09:22:14Z</time>
      </trkpt>
      <trkpt lat="43.59584" lon="6.93426">
        <ele>101.97717</ele>
        <time>2013-03-03T09:24:14Z</time>
      </trkpt>
      <trkpt lat="43.59319" lon="6.93034">
        <ele>92.48288</ele>
        <time>2013-03-03T09:26:14Z</time>
      </trkpt>
      <trkpt lat="43.59063" lon="6.93391">
        <ele>85.11216</ele>
        <time>2013-03-03T09:28:14Z</time>
      </trkpt>
      <trkpt lat="43.58802" lon="6.93982">
        <ele>79.58412</ele>
        <time>2013-03-03T09:30:14Z</time>
      </trkpt>
      <trkpt lat="43.59081" lon="6.94105">
        <ele>79.43809</ele>
        <time>2013-03-03T09:32:14Z</time>
      </trkpt>
      <trkpt lat="43.59131" lon="6.94172">
        <ele>84.82857</ele>
        <time>2013-03-03T09:34:14Z</time>
      </trkpt>
      <trkpt lat="43.59057" lon="6.94257">
        <ele>91.87143</ele>
        <time>2013-03-03T09:36:14Z</time>
      </trkpt>
      <trkpt lat="43.59008" lon="6.94359">
        <ele>98.90357</ele>
        <time>2013-03-03T09:38:14Z</time>
      </trkpt>
      <trkpt lat="43.59083" lon="6.94303">
        <ele>109.67767</ele>
        <time>2013-03-03T09:40:14Z</time>
      </trkpt>
      <trkpt lat="43.5919" lon="6.94284">
        <ele>120.758255</ele>
        <time>2013-03-03T09:42:14Z</time>
      </trkpt>
      <trkpt lat="43.59239" lon="6.94324">
        <ele>131.0687</ele>
        <time>2013-03-03T09:44:14Z</time>
      </trkpt>
      <trkpt lat="43.59195" lon="6.94325">
        <ele>142.80151</ele>
        <time>2013-03-03T09:46:14Z</time>
      </trkpt>
      <trkpt lat="43.59196" lon="6.94381">
        <ele>154.10114</ele>
        <time>2013-03-03T09:48:14Z</time>
      </trkpt>
      <trkpt lat="43.59215" lon="6.94458">
        <ele>164.57585</ele>
        <time>2013-03-03T09:50:14Z</time>
      </trkpt>
      <trkpt lat="43.59471" lon="6.9439">
        <ele>171.43188</ele>
        <time>2013-03-03T09:52:14Z</time>
      </trkpt>
      <trkpt lat="43.59616" lon="6.94388">
        <ele>181.32391</ele>
        <time>2013-03-03T09:54:14Z</time>
      </trkpt>
      <trkpt lat="43.59868" lon="6.94445">
        <ele>185.49294</ele>
        <time>2013-03-03T09:56:14Z</time>
      </trkpt>
      <trkpt lat="43.60225" lon="6.94158">
        <ele>187.1197</ele>
        <time>2013-03-03T09:58:14Z</time>
      </trkpt>
      <trkpt lat="43.6039" lon="6.93886">
        <ele>181.33978</ele>
        <time>2013-03-03T10:00:14Z</time>
      </trkpt>
      <trkpt lat="43.60685" lon="6.9387">
        <ele>171.50484</ele>
        <time>2013-03-03T10:02:14Z</time>
      </trkpt>
      <trkpt lat="43.608" lon="6.94028">
        <ele>155.87863</ele>
        <time>2013-03-03T10:04:14Z</time>
      </trkpt>
      <trkpt lat="43.60967" lon="6.93987">
        <ele>146.15897</ele>
        <time>2013-03-03T10:06:14Z</time>
      </trkpt>
      <trkpt lat="43.60998" lon="6.9382">
        <ele>144.11923</ele>
        <time>2013-03-03T10:08:14Z</time>
      </trkpt>
      <trkpt lat="43.61184" lon="6.93684">
        <ele>147.08942</ele>
        <time>2013-03-03T10:10:14Z</time>
      </trkpt>
      <trkpt lat="43.61384" lon="6.93718">
        <ele>148.31706</ele>
        <time>2013-03-03T10:12:14Z</time>
      </trkpt>
      <trkpt lat="43.61633" lon="6.93982">
        <ele>146.4878</ele>
        <time>2013-03-03T10:14:14Z</time>
      </trkpt>
      <trkpt lat="43.61761" lon="6.94016">
        <ele>146.61584</ele>
        <time>2013-03-03T10:16:14Z</time>
      </trkpt>
      <trkpt lat="43.62022" lon="6.94125">
        <ele>148.96188</ele>
        <time>2013-03-03T10:18:14Z</time>
      </trkpt>
      <trkpt lat="43.61961" lon="6.93997">
        <ele>155.97142</ele>
        <time>2013-03-03T10:20:14Z</time>
      </trkpt>
      <trkpt lat="43.62095" lon="6.9374">
        <ele>164.72856</ele>
        <time>2013-03-03T10:22:14Z</time>
      </trkpt>
      <trkpt lat="43.6188" lon="6.93755">
        <ele>181.40982</ele>
        <time>2013-03-03T10:26:14Z</time>
      </trkpt>
      <trkpt lat="43.61774" lon="6.9391">
        <ele>175.80736</ele>
        <time>2013-03-03T10:28:14Z</time>
      </trkpt>
      <trkpt lat="43.61635" lon="6.94057">
        <ele>171.35551</ele>
        <time>2013-03-03T10:30:14Z</time>
      </trkpt>
      <trkpt lat="43.61481" lon="6.9407">
        <ele>172.26665</ele>
        <time>2013-03-03T10:32:14Z</time>
      </trkpt>
      <trkpt lat="43.61423" lon="6.94076">
        <ele>174.94998</ele>
        <time>2013-03-03T10:34:14Z</time>
      </trkpt>
      <trkpt lat="43.61379" lon="6.93995">
        <ele>169.71248</ele>
        <time>2013-03-03T10:36:14Z</time>
      </trkpt>
      <trkpt lat="43.61368" lon="6.93907">
        <ele>159.78436</ele>
        <time>2013-03-03T10:38:14Z</time>
      </trkpt>
      <trkpt lat="43.61064" lon="6.93915">
        <ele>151.33827</ele>
        <time>2013-03-03T10:40:14Z</time>
      </trkpt>
      <trkpt lat="43.60803" lon="6.94213">
        <ele>142.00371</ele>
        <time>2013-03-03T10:42:14Z</time>
      </trkpt>
      <trkpt lat="43.60918" lon="6.94319">
        <ele>137.75278</ele>
        <time>2013-03-03T10:44:14Z</time>
      </trkpt>
      <trkpt lat="43.61286" lon="6.9455">
        <ele>132.31459</ele>
        <time>2013-03-03T10:46:14Z</time>
      </trkpt>
      <trkpt lat="43.614" lon="6.94713">
        <ele>132.73593</ele>
        <time>2013-03-03T10:48:14Z</time>
      </trkpt>
      <trkpt lat="43.61504" lon="6.94994">
        <ele>132.80196</ele>
        <time>2013-03-03T10:50:14Z</time>
      </trkpt>
      <trkpt lat="43.61594" lon="6.95232">
        <ele>137.35147</ele>
        <time>2013-03-03T10:52:14Z</time>
      </trkpt>
      <trkpt lat="43.61562" lon="6.95282">
        <ele>145.7636</ele>
        <time>2013-03-03T10:54:14Z</time>
      </trkpt>
      <trkpt lat="43.61388" lon="6.95159">
        <ele>155.5727</ele>
        <time>2013-03-03T10:56:14Z</time>
      </trkpt>
      <trkpt lat="43.61221" lon="6.94987">
        <ele>167.92952</ele>
        <time>2013-03-03T10:58:14Z</time>
      </trkpt>
      <trkpt lat="43.61068" lon="6.95207">
        <ele>179.94714</ele>
        <time>2013-03-03T11:00:14Z</time>
      </trkpt>
      <trkpt lat="43.60526" lon="6.95105">
        <ele>188.46036</ele>
        <time>2013-03-03T11:02:14Z</time>
      </trkpt>
      <trkpt lat="43.60196" lon="6.95062">
        <ele>189.84526</ele>
        <time>2013-03-03T11:04:14Z</time>
      </trkpt>
    </trkseg>
  </trk>
</gpx>